Time;durP1;ratioP1;P1;durP2;ratioP2;P2;SDS_P1;SDS_P2;PMS_P1;PMS_P2;Temp;Humidity;BMP_temperature;BMP_pressure;BME280_temperature;BME280_humidity;BME280_pressure;Samples;Min_cycle;Max_cycle;Signal;HPM_P1;HPM_P2
2022/08/17 00:01:07;;;;;;;7.85;5.22;;;;;;;20.15;100.00;99320.94;4880632;29;20057;-65
2022/08/17 00:03:37;;;;;;;10.07;5.28;;;;;;;20.17;100.00;99324.38;4894699;29;20028;-65
2022/08/17 00:06:11;;;;;;;8.60;5.57;;;;;;;20.15;100.00;99326.34;4894763;29;20035;-65
2022/08/17 00:08:49;;;;;;;8.07;5.57;;;;;;;20.12;100.00;99325.69;4895004;29;20427;-65
2022/08/17 00:11:19;;;;;;;7.55;5.63;;;;;;;20.09;100.00;99316.00;4894710;29;20080;-65
2022/08/17 00:13:50;;;;;;;11.30;5.93;;;;;;;20.09;100.00;99317.84;4896121;29;20028;-65
2022/08/17 00:16:22;;;;;;;11.20;5.65;;;;;;;20.07;100.00;99307.19;4894117;29;20029;-65
2022/08/17 00:18:49;;;;;;;14.98;7.13;;;;;;;20.07;100.00;99309.88;4896342;29;20040;-65
2022/08/17 00:21:16;;;;;;;8.52;5.78;;;;;;;20.05;100.00;99313.69;4898460;29;20120;-65
2022/08/17 00:23:43;;;;;;;10.25;5.57;;;;;;;19.96;99.39;99320.72;4894890;29;20029;-65
2022/08/17 00:26:09;;;;;;;9.43;5.57;;;;;;;19.97;99.16;99322.41;4894381;29;20043;-65
2022/08/17 00:28:36;;;;;;;11.05;5.85;;;;;;;19.98;98.85;99313.34;4894360;29;20033;-65
2022/08/17 00:31:02;;;;;;;8.40;5.72;;;;;;;19.96;98.60;99318.00;4893736;29;20043;-65
2022/08/17 00:33:30;;;;;;;8.95;5.75;;;;;;;19.96;98.71;99314.44;4894428;29;20335;-65
2022/08/17 00:35:56;;;;;;;10.30;6.10;;;;;;;19.99;98.10;99308.78;4878362;29;20031;-65
2022/08/17 00:38:23;;;;;;;10.75;5.68;;;;;;;20.02;97.66;99325.59;4895905;29;20554;-65
2022/08/17 00:40:55;;;;;;;8.80;5.82;;;;;;;20.07;97.55;99317.97;4898326;29;20087;-65
2022/08/17 00:43:36;;;;;;;7.75;5.10;;;;;;;20.08;97.29;99316.97;4902235;29;20492;-65
2022/08/17 00:46:10;;;;;;;8.00;5.75;;;;;;;20.05;97.75;99319.94;4897970;29;20060;-65
2022/08/17 00:48:36;;;;;;;10.35;5.78;;;;;;;20.05;97.56;99325.34;4899992;29;20103;-65
2022/08/17 00:51:11;;;;;;;9.50;5.78;;;;;;;20.04;97.75;99323.63;4889819;29;20033;-65
2022/08/17 00:53:39;;;;;;;8.55;5.53;;;;;;;20.04;97.14;99312.84;4881975;29;20080;-66
2022/08/17 00:56:10;;;;;;;9.23;5.75;;;;;;;20.04;98.10;99318.22;4885381;29;20052;-66
2022/08/17 00:58:36;;;;;;;9.98;6.13;;;;;;;20.04;97.72;99323.63;4883178;29;20490;-65
2022/08/17 01:01:02;;;;;;;8.43;5.80;;;;;;;20.03;98.26;99321.06;4880960;29;20061;-65
2022/08/17 01:03:28;;;;;;;9.02;5.95;;;;;;;19.95;98.58;99308.16;4895548;29;20115;-65
2022/08/17 01:05:57;;;;;;;8.45;6.03;;;;;;;19.93;98.48;99315.56;4881680;29;20077;-65
2022/08/17 01:08:25;;;;;;;9.90;5.78;;;;;;;19.86;98.36;99324.28;4888553;29;20108;-65
2022/08/17 01:10:54;;;;;;;8.25;5.75;;;;;;;19.86;98.83;99329.66;4880356;29;20044;-65
2022/08/17 01:13:21;;;;;;;8.77;5.93;;;;;;;19.81;99.49;99332.75;4880778;29;20553;-65
2022/08/17 01:15:52;;;;;;;8.93;6.38;;;;;;;19.80;99.63;99324.78;4880675;29;20080;-65
2022/08/17 01:18:18;;;;;;;9.93;6.30;;;;;;;19.83;100.00;99322.69;4880972;29;20535;-65
2022/08/17 01:20:47;;;;;;;9.23;5.82;;;;;;;19.84;99.27;99326.22;4879811;29;20119;-65
2022/08/17 01:23:13;;;;;;;11.90;5.65;;;;;;;19.82;99.92;99323.66;4878679;29;20028;-65
2022/08/17 01:25:40;;;;;;;10.60;5.90;;;;;;;19.79;99.81;99333.84;4878858;29;20355;-65
2022/08/17 01:28:05;;;;;;;12.23;5.90;;;;;;;19.78;99.63;99327.59;4879170;29;20092;-65
2022/08/17 01:30:31;;;;;;;8.38;5.32;;;;;;;19.76;99.81;99328.69;4878866;29;20032;-65
2022/08/17 01:32:56;;;;;;;10.30;5.85;;;;;;;19.73;100.00;99323.53;4893250;29;20028;-65
2022/08/17 01:35:22;;;;;;;8.20;5.47;;;;;;;19.73;99.72;99328.94;4897634;29;20106;-65
2022/08/17 01:37:48;;;;;;;8.43;4.95;;;;;;;19.74;100.00;99331.53;4898812;29;20024;-65
2022/08/17 01:40:56;;;;;;;8.38;5.82;;;;;;;19.77;99.90;99325.88;4898813;29;20182;-65
2022/08/17 01:43:27;;;;;;;8.93;5.18;;;;;;;19.78;100.00;99333.00;4859437;29;20033;-65
2022/08/17 01:45:55;;;;;;;8.38;5.72;;;;;;;19.78;100.00;99333.00;4865640;29;20029;-65
2022/08/17 01:48:21;;;;;;;7.97;5.22;;;;;;;19.79;100.00;99340.09;4888962;29;20048;-65
2022/08/17 01:50:49;;;;;;;9.02;6.00;;;;;;;19.83;100.00;99351.50;4898303;29;20040;-65
2022/08/17 01:53:20;;;;;;;6.65;5.07;;;;;;;19.84;100.00;99348.69;4898028;29;20021;-65
2022/08/17 01:55:50;;;;;;;8.05;5.75;;;;;;;19.87;100.00;99350.31;4898365;29;20059;-65
2022/08/17 01:58:16;;;;;;;12.63;6.00;;;;;;;19.88;100.00;99362.81;4898585;29;20032;-65
2022/08/17 02:00:43;;;;;;;9.60;6.45;;;;;;;19.93;99.95;99360.59;4881061;29;20095;-65
2022/08/17 02:03:09;;;;;;;9.25;5.75;;;;;;;20.03;98.62;99361.56;4898614;29;20505;-65
2022/08/17 02:05:35;;;;;;;8.13;5.70;;;;;;;20.11;98.04;99354.56;4898475;29;20032;-65
2022/08/17 02:08:03;;;;;;;8.52;5.68;;;;;;;20.16;98.08;99360.47;4898418;29;20043;-65
2022/08/17 02:10:31;;;;;;;9.75;6.28;;;;;;;20.19;97.13;99365.63;4898201;29;20028;-65
2022/08/17 02:12:57;;;;;;;11.30;6.65;;;;;;;20.17;96.22;99367.59;4898390;29;20029;-65
2022/08/17 02:15:23;;;;;;;10.60;6.38;;;;;;;20.23;95.73;99404.88;4900504;29;20072;-65
2022/08/17 02:17:48;;;;;;;12.20;7.50;;;;;;;20.28;95.44;99434.25;4898528;29;20028;-65
2022/08/17 02:20:14;;;;;;;17.05;8.13;;;;;;;20.21;96.61;99433.88;4882296;29;20036;-65
2022/08/17 02:22:43;;;;;;;16.27;7.43;;;;;;;20.17;97.25;99423.41;4879465;29;20033;-65
2022/08/17 02:25:11;;;;;;;11.98;6.97;;;;;;;20.25;96.90;99432.63;4879508;29;20036;-65
2022/08/17 02:27:38;;;;;;;11.82;7.35;;;;;;;20.33;95.83;99448.22;4879120;29;20056;-65
2022/08/17 02:30:06;;;;;;;9.30;7.13;;;;;;;20.35;95.67;99463.31;4885099;29;20033;-65
2022/08/17 02:32:31;;;;;;;10.82;6.70;;;;;;;20.36;95.86;99454.22;4889686;29;20108;-66
2022/08/17 02:34:58;;;;;;;9.77;6.75;;;;;;;20.38;96.40;99454.97;4896278;29;20514;-66
2022/08/17 02:37:25;;;;;;;9.45;6.93;;;;;;;20.43;96.06;99454.56;4895753;29;20116;-66
2022/08/17 02:39:51;;;;;;;10.65;6.93;;;;;;;20.46;96.48;99460.59;4897366;29;20143;-66
2022/08/17 02:42:16;;;;;;;11.88;7.18;;;;;;;20.53;96.29;99450.13;4912688;29;20036;-66
2022/08/17 02:44:42;;;;;;;10.93;7.40;;;;;;;20.59;95.76;99428.88;4914928;29;20040;-66
2022/08/17 02:47:08;;;;;;;9.68;6.68;;;;;;;20.63;95.99;99441.16;4898841;29;20397;-66
2022/08/17 02:49:34;;;;;;;11.77;6.75;;;;;;;20.68;95.58;99449.75;4897570;29;20434;-66
2022/08/17 02:52:02;;;;;;;9.60;6.97;;;;;;;20.69;95.40;99440.63;4897703;29;20021;-66
2022/08/17 02:54:27;;;;;;;10.18;7.15;;;;;;;20.72;94.78;99447.66;4897691;29;20397;-66
2022/08/17 02:56:53;;;;;;;9.13;6.50;;;;;;;20.69;95.22;99443.34;4897350;29;20031;-66
2022/08/17 02:59:18;;;;;;;9.02;6.22;;;;;;;20.68;96.16;99444.34;4897372;29;20433;-66
2022/08/17 03:01:44;;;;;;;10.27;7.38;;;;;;;20.70;95.66;99458.59;4897635;29;20039;-66
2022/08/17 03:04:09;;;;;;;9.93;6.60;;;;;;;20.72;94.96;99456.59;4897204;29;20370;-66
2022/08/17 03:06:36;;;;;;;15.52;7.65;;;;;;;20.71;94.78;99465.69;4899661;29;20080;-66
2022/08/17 03:09:02;;;;;;;19.52;8.30;;;;;;;20.67;94.61;99453.41;4897422;29;20033;-65
2022/08/17 03:11:27;;;;;;;9.93;6.97;;;;;;;20.71;94.52;99465.69;4897046;29;20479;-66
2022/08/17 03:13:52;;;;;;;13.57;7.60;;;;;;;20.73;93.92;99476.38;4896641;29;20044;-66
2022/08/17 03:16:18;;;;;;;12.38;7.80;;;;;;;20.68;94.30;99471.38;4895878;29;20056;-65
2022/08/17 03:18:43;;;;;;;10.18;7.15;;;;;;;20.66;94.62;99473.34;4895833;29;20027;-65
2022/08/17 03:21:09;;;;;;;11.07;7.28;;;;;;;20.71;94.31;99473.81;4895871;29;20100;-65
2022/08/17 03:23:39;;;;;;;30.30;8.63;;;;;;;20.67;94.44;99464.22;4895757;29;20024;-65
2022/08/17 03:26:06;;;;;;;11.65;6.95;;;;;;;20.71;94.27;99460.28;4896407;29;20477;-66
2022/08/17 03:28:32;;;;;;;10.43;7.22;;;;;;;20.78;94.62;99466.91;4896598;29;20145;-66
2022/08/17 03:30:58;;;;;;;11.10;7.30;;;;;;;20.78;94.32;99469.63;4897127;29;20024;-66
2022/08/17 03:33:23;;;;;;;12.70;7.88;;;;;;;20.77;95.01;99467.88;4896806;29;20071;-66
2022/08/17 03:35:49;;;;;;;17.33;7.70;;;;;;;20.82;94.75;99465.66;4896878;29;20100;-66
2022/08/17 03:38:16;;;;;;;11.68;6.80;;;;;;;20.87;94.22;99457.19;4896868;29;20053;-66
2022/08/17 03:40:43;;;;;;;17.00;7.80;;;;;;;20.91;94.13;99462.22;4896479;29;20191;-66
2022/08/17 03:43:09;;;;;;;12.65;8.13;;;;;;;20.93;94.69;99465.66;4896757;29;20036;-66
2022/08/17 03:56:42;;;;;;;17.42;7.60;;;;;;;20.94;95.70;99467.34;4896409;29;20088;-65
2022/08/17 03:59:20;;;;;;;30.08;8.20;;;;;;;20.99;95.73;99463.47;4894722;29;20028;-66
2022/08/17 04:01:48;;;;;;;11.60;7.03;;;;;;;21.01;95.00;99461.47;4896283;29;20041;-66
2022/08/17 04:04:14;;;;;;;14.02;8.80;;;;;;;20.93;95.22;99465.66;4896478;29;20052;-66
2022/08/17 04:06:40;;;;;;;14.25;7.85;;;;;;;20.93;95.53;99481.00;4896407;29;20168;-66
2022/08/17 04:09:06;;;;;;;10.68;7.38;;;;;;;20.88;95.90;99467.88;4896451;29;20033;-66
2022/08/17 04:11:32;;;;;;;22.65;7.85;;;;;;;20.98;95.46;99473.41;4896183;29;20084;-66
2022/08/17 04:13:58;;;;;;;13.88;7.32;;;;;;;21.12;94.39;99485.78;4895957;29;20040;-66
2022/08/17 04:16:24;;;;;;;9.82;7.50;;;;;;;21.14;93.61;99483.78;4896311;29;20102;-66
2022/08/17 04:18:51;;;;;;;11.48;7.60;;;;;;;21.19;93.49;99476.13;4898529;29;20016;-66
2022/08/17 04:21:17;;;;;;;14.75;7.82;;;;;;;21.16;93.29;99481.81;4896241;29;20033;-66
2022/08/17 04:23:43;;;;;;;11.48;8.25;;;;;;;21.05;92.78;99468.34;4896415;29;20033;-66
2022/08/17 04:26:08;;;;;;;12.25;7.95;;;;;;;21.13;92.65;99469.41;4896593;29;20544;-66
2022/08/17 04:28:34;;;;;;;11.50;7.18;;;;;;;21.24;92.88;99476.59;4895426;29;20036;-66
2022/08/17 04:30:59;;;;;;;12.60;8.38;;;;;;;21.28;92.34;99475.38;4896605;29;20105;-66
2022/08/17 04:33:27;;;;;;;11.63;7.65;;;;;;;21.31;92.54;99491.34;4898521;29;20108;-66
2022/08/17 04:35:57;;;;;;;15.85;7.82;;;;;;;21.29;92.46;99494.19;4896227;29;20501;-66
2022/08/17 04:38:27;;;;;;;13.43;7.90;;;;;;;21.29;92.30;99487.91;4894556;29;20033;-66
2022/08/17 04:43:39;;;;;;;13.57;8.68;;;;;;;21.39;91.95;99467.19;4894394;29;20036;-66
2022/08/17 04:46:13;;;;;;;13.38;7.97;;;;;;;21.44;91.67;99470.34;4894341;29;20024;-66
2022/08/17 04:48:44;;;;;;;13.00;7.80;;;;;;;21.49;91.20;99479.81;4894885;29;20164;-66
2022/08/17 04:51:40;;;;;;;15.13;7.70;;;;;;;21.49;91.58;99490.63;4896257;29;20422;-66
2022/08/17 04:54:13;;;;;;;12.25;7.57;;;;;;;21.52;90.76;99484.97;4887433;29;20040;-66
2022/08/17 04:56:39;;;;;;;10.32;7.00;;;;;;;21.47;90.92;99473.66;4895994;29;20047;-66
2022/08/17 04:59:07;;;;;;;12.88;8.75;;;;;;;21.55;90.88;99467.59;4895849;29;20024;-66
2022/08/17 05:01:35;;;;;;;87.80;15.13;;;;;;;21.59;90.70;99461.78;4897626;29;20461;-66
2022/08/17 05:04:07;;;;;;;10.35;6.82;;;;;;;21.64;90.69;99458.69;4894021;29;20514;-66
2022/08/17 05:06:33;;;;;;;11.35;6.88;;;;;;;21.58;90.48;99456.53;4894089;29;20057;-67
2022/08/17 05:08:59;;;;;;;14.88;8.15;;;;;;;21.67;90.25;99466.53;4894050;29;20053;-67
2022/08/17 05:11:26;;;;;;;10.52;8.10;;;;;;;21.70;90.17;99471.69;4893912;29;20143;-67
2022/08/17 05:13:53;;;;;;;14.32;7.63;;;;;;;21.70;90.98;99467.13;4894398;29;20028;-67
2022/08/17 05:16:21;;;;;;;13.63;8.10;;;;;;;21.66;91.70;99454.00;4894709;29;20429;-67
2022/08/17 05:18:46;;;;;;;9.88;6.15;;;;;;;21.74;92.66;99446.06;4895693;29;20124;-66
2022/08/17 05:21:14;;;;;;;11.38;7.10;;;;;;;21.76;94.58;99457.63;4878635;29;20056;-66
2022/08/17 05:23:40;;;;;;;11.60;7.22;;;;;;;21.61;96.79;99483.31;4895112;29;20505;-66
2022/08/17 05:26:06;;;;;;;14.05;8.70;;;;;;;21.52;97.66;99479.53;4896186;29;20036;-66
2022/08/17 05:28:31;;;;;;;16.17;8.65;;;;;;;21.47;98.49;99475.50;4881588;29;20036;-66
2022/08/17 05:31:01;;;;;;;12.45;7.75;;;;;;;21.41;98.83;99474.19;4898385;29;20073;-66
2022/08/17 05:33:34;;;;;;;19.52;9.02;;;;;;;21.40;99.09;99468.94;4898430;29;20036;-66
2022/08/17 05:36:02;;;;;;;10.73;7.43;;;;;;;21.45;99.49;99461.28;4898763;29;20039;-66
2022/08/17 05:38:29;;;;;;;14.23;9.75;;;;;;;21.44;99.37;99470.34;4897964;29;20212;-66
2022/08/17 05:40:55;;;;;;;13.93;7.78;;;;;;;21.40;98.60;99464.34;4897923;29;20024;-66
2022/08/17 05:43:24;;;;;;;9.93;7.05;;;;;;;21.40;97.28;99464.34;4897075;29;20032;-66
2022/08/17 05:45:55;;;;;;;11.00;7.10;;;;;;;21.43;97.60;99484.91;4895673;29;20477;-66
2022/08/17 05:48:20;;;;;;;10.98;7.40;;;;;;;21.45;97.29;99482.91;4896951;29;20058;-66
2022/08/17 05:51:18;;;;;;;14.18;8.10;;;;;;;21.46;97.37;99495.44;4897550;29;20035;-66
2022/08/17 05:53:46;;;;;;;12.52;7.20;;;;;;;21.53;98.04;99488.53;4897638;29;20054;-66
2022/08/17 05:56:17;;;;;;;15.80;7.55;;;;;;;21.53;98.25;99477.72;4896962;29;20035;-66
2022/08/17 05:59:03;;;;;;;11.70;6.88;;;;;;;21.55;98.11;99490.09;4897660;29;20055;-66
2022/08/17 06:01:52;;;;;;;10.32;6.68;;;;;;;21.52;95.39;99512.03;4897945;29;20044;-66
2022/08/17 06:04:35;;;;;;;12.38;6.72;;;;;;;21.56;95.19;99502.66;4898000;29;20199;-66
2022/08/17 06:07:50;;;;;;;9.85;6.65;;;;;;;21.62;94.97;99504.84;4897893;29;20060;-66
2022/08/17 06:10:29;;;;;;;11.23;5.73;;;;;;;21.67;94.54;99505.31;4893647;29;20259;-66
2022/08/17 06:13:11;;;;;;;10.40;6.32;;;;;;;21.68;94.12;99507.00;4899618;29;20060;-66
2022/08/17 06:15:54;;;;;;;12.13;5.90;;;;;;;21.74;94.16;99494.81;4898155;29;20032;-66
2022/08/17 06:18:23;;;;;;;8.90;5.83;;;;;;;21.78;94.42;99490.84;4896156;29;20032;-66
2022/08/17 06:21:12;;;;;;;9.27;5.80;;;;;;;21.80;93.40;99495.16;4897181;29;20067;-66
2022/08/17 06:23:44;;;;;;;9.05;5.93;;;;;;;21.83;94.30;99488.59;4896150;29;20378;-66
2022/08/17 06:26:27;;;;;;;9.13;5.68;;;;;;;21.84;94.84;99484.94;4896210;29;20453;-66
2022/08/17 06:28:54;;;;;;;8.63;5.55;;;;;;;21.85;95.09;99481.22;4886093;29;20081;-66
2022/08/17 06:31:28;;;;;;;10.65;4.97;;;;;;;21.83;94.62;99451.56;4884580;29;20512;-66
2022/08/17 06:33:55;;;;;;;6.88;5.07;;;;;;;21.85;95.02;99437.88;4882262;29;20029;-66
2022/08/17 06:36:39;;;;;;;10.25;4.88;;;;;;;21.83;94.61;99446.16;4882123;29;20033;-66
2022/08/17 06:39:21;;;;;;;9.98;5.22;;;;;;;21.88;94.36;99470.09;4883331;29;20028;-66
2022/08/17 06:42:14;;;;;;;10.35;5.68;;;;;;;21.87;92.86;99474.69;4884278;29;20084;-66
2022/08/17 06:44:42;;;;;;;7.53;4.90;;;;;;;21.97;92.48;99469.31;4884156;29;20115;-67
2022/08/17 06:47:17;;;;;;;11.98;5.40;;;;;;;22.01;92.58;99468.91;4883510;29;20036;-67
2022/08/17 06:49:57;;;;;;;6.38;4.50;;;;;;;22.07;91.55;99472.94;4882638;29;20105;-67
2022/08/17 06:52:37;;;;;;;7.25;4.90;;;;;;;22.10;90.44;99461.81;4864992;29;20532;-67
2022/08/17 06:55:14;;;;;;;7.72;5.15;;;;;;;22.11;90.53;99428.31;4880245;29;20035;-67
2022/08/17 06:57:51;;;;;;;7.43;4.65;;;;;;;22.11;91.44;99417.47;4880727;29;20472;-67
2022/08/17 07:00:23;;;;;;;7.72;5.10;;;;;;;22.07;91.96;99410.63;4881255;29;20107;-67
2022/08/17 07:03:01;;;;;;;6.38;4.13;;;;;;;21.99;89.84;99397.75;4883595;29;20048;-66
2022/08/17 07:05:31;;;;;;;6.35;3.97;;;;;;;21.99;90.90;99397.75;4880440;29;20132;-66
2022/08/17 07:08:15;;;;;;;4.82;3.05;;;;;;;21.95;90.42;99390.03;4881046;29;20029;-66
2022/08/17 07:10:55;;;;;;;5.72;3.35;;;;;;;21.89;90.27;99375.19;4881989;29;20036;-67
2022/08/17 07:13:28;;;;;;;5.80;3.40;;;;;;;22.01;88.45;99386.78;4882958;29;20036;-67
2022/08/17 07:16:13;;;;;;;5.15;3.05;;;;;;;22.04;88.16;99378.41;4881049;29;20036;-67
2022/08/17 07:18:39;;;;;;;5.88;3.05;;;;;;;22.06;88.92;99377.25;4882963;29;20057;-67
2022/08/17 07:21:20;;;;;;;5.35;3.20;;;;;;;22.05;88.67;99404.50;4882471;29;20037;-66
2022/08/17 07:24:10;;;;;;;6.07;3.40;;;;;;;22.10;89.40;99402.22;4882898;29;20438;-66
2022/08/17 07:26:37;;;;;;;3.97;2.78;;;;;;;22.08;89.00;99380.69;4877943;29;20455;-67
2022/08/17 07:29:03;;;;;;;5.40;3.20;;;;;;;22.23;90.81;99394.72;4889546;29;20032;-66
2022/08/17 07:31:30;;;;;;;6.15;3.58;;;;;;;22.27;90.58;99393.44;4884783;29;20028;-66
2022/08/17 07:34:13;;;;;;;3.88;2.80;;;;;;;22.29;91.41;99383.31;4884575;29;20450;-66
2022/08/17 07:36:40;;;;;;;4.47;2.97;;;;;;;22.32;93.41;99393.91;4888207;29;20048;-66
2022/08/17 07:39:07;;;;;;;5.47;3.03;;;;;;;22.36;94.86;99392.59;4886998;29;20044;-66
2022/08/17 07:41:39;;;;;;;6.15;3.50;;;;;;;22.38;94.58;99404.16;4882026;29;20068;-66
2022/08/17 07:44:14;;;;;;;4.53;2.83;;;;;;;22.36;93.42;99395.31;4879675;29;20056;-66
2022/08/17 07:49:39;;;;;;;4.53;2.60;;;;;;;22.30;87.85;99374.19;4891734;29;20119;-66
2022/08/17 07:52:26;;;;;;;4.80;2.50;;;;;;;22.44;84.87;99386.50;4893363;29;20493;-66
2022/08/17 07:54:53;;;;;;;4.93;2.95;;;;;;;22.57;82.50;99406.94;4880767;29;20049;-66
2022/08/17 07:57:18;;;;;;;6.00;2.55;;;;;;;22.66;79.89;99416.97;4880069;29;20497;-66
2022/08/17 07:59:59;;;;;;;5.28;2.58;;;;;;;22.72;80.92;99419.09;4895110;29;20077;-66
2022/08/17 08:02:27;;;;;;;5.50;2.50;;;;;;;22.72;80.20;99419.09;4884796;29;20048;-66
2022/08/17 08:05:19;;;;;;;3.97;2.53;;;;;;;22.70;81.72;99433.81;4878495;29;20062;-66
2022/08/17 08:08:17;;;;;;;6.40;2.75;;;;;;;22.60;84.33;99436.47;4895072;29;20037;-66
2022/08/17 08:10:42;;;;;;;5.30;2.65;;;;;;;22.54;86.26;99456.03;4895437;29;20036;-66
2022/08/17 08:13:23;;;;;;;7.47;3.10;;;;;;;22.43;92.64;99493.19;4895798;29;20550;-66
2022/08/17 08:15:52;;;;;;;4.68;2.90;;;;;;;22.22;94.45;99485.13;4898105;29;20028;-66
2022/08/17 08:18:46;;;;;;;4.60;2.60;;;;;;;22.09;94.76;99484.50;4895736;29;20020;-66
2022/08/17 08:21:20;;;;;;;5.22;3.53;;;;;;;22.01;96.15;99474.31;4887858;29;20045;-67
2022/08/17 08:23:51;;;;;;;4.22;2.72;;;;;;;21.99;97.45;99480.88;4876180;29;20725;-67
2022/08/17 08:26:35;;;;;;;5.63;2.83;;;;;;;21.97;99.11;99480.16;4875859;29;20032;-68
2022/08/17 08:29:02;;;;;;;5.72;3.40;;;;;;;21.93;100.00;99479.56;4881419;29;20484;-68
2022/08/17 08:32:04;;;;;;;6.22;3.33;;;;;;;21.97;100.00;99472.91;4895367;29;20052;-69
2022/08/17 08:34:56;;;;;;;6.85;3.70;;;;;;;22.01;100.00;99454.50;4895046;29;20481;-69
2022/08/17 08:37:29;;;;;;;7.95;3.67;;;;;;;22.10;100.00;99464.53;4895333;29;20038;-69
2022/08/17 08:40:09;;;;;;;7.70;4.65;;;;;;;22.06;100.00;99517.25;4895326;29;20025;-69
2022/08/17 08:42:59;;;;;;;7.97;5.30;;;;;;;21.93;100.00;99517.47;4877136;29;20468;-69
2022/08/17 08:45:37;;;;;;;8.43;5.47;;;;;;;21.96;100.00;99508.22;4879615;29;20653;-69
2022/08/17 08:48:54;;;;;;;9.43;6.38;;;;;;;22.02;100.00;99494.16;4893485;29;20048;-69
2022/08/17 08:51:26;;;;;;;10.15;6.28;;;;;;;22.05;100.00;99491.16;4885400;29;20048;-69
2022/08/17 08:54:08;;;;;;;10.82;7.03;;;;;;;22.10;100.00;99459.97;4893948;29;20151;-69
2022/08/17 08:56:51;;;;;;;11.20;7.40;;;;;;;22.21;100.00;99461.72;4893669;29;20111;-69
2022/08/17 08:59:23;;;;;;;12.30;7.75;;;;;;;22.11;100.00;99536.66;4894251;29;20108;-69
2022/08/17 09:02:10;;;;;;;10.57;7.70;;;;;;;22.08;100.00;99531.53;4896617;29;20120;-69
2022/08/17 09:04:45;;;;;;;10.48;6.72;;;;;;;22.14;100.00;99522.88;4897871;29;20028;-69
2022/08/17 09:07:35;;;;;;;12.02;7.70;;;;;;;22.22;100.00;99546.59;4898478;29;20107;-69
2022/08/17 09:10:09;;;;;;;11.30;7.28;;;;;;;22.25;100.00;99560.72;4866551;29;20091;-69
2022/08/17 09:12:59;;;;;;;10.23;7.43;;;;;;;22.39;100.00;99552.22;4879778;29;20048;-69
2022/08/17 09:15:30;;;;;;;13.10;7.97;;;;;;;22.53;100.00;99554.63;4879367;29;20112;-69
2022/08/17 09:18:13;;;;;;;12.68;8.05;;;;;;;22.75;100.00;99565.25;4880281;29;20037;-69
2022/08/17 09:20:48;;;;;;;12.10;7.60;;;;;;;22.92;100.00;99567.31;4880150;29;20146;-69
2022/08/17 09:23:24;;;;;;;13.18;8.23;;;;;;;23.15;100.00;99581.50;4880147;29;20032;-69
2022/08/17 09:26:01;;;;;;;13.43;7.53;;;;;;;23.33;100.00;99599.72;4879803;29;20043;-69
2022/08/17 09:28:36;;;;;;;9.25;6.65;;;;;;;23.52;100.00;99608.91;4879980;29;20033;-69
2022/08/17 09:31:08;;;;;;;10.93;6.75;;;;;;;23.57;98.69;99614.75;4880262;29;20101;-68
2022/08/17 09:33:41;;;;;;;11.80;6.97;;;;;;;23.64;96.31;99618.63;4898486;29;20059;-68
2022/08/17 09:36:10;;;;;;;9.75;6.75;;;;;;;23.78;95.69;99637.22;4898256;29;20028;-68
2022/08/17 09:39:09;;;;;;;10.32;6.18;;;;;;;23.81;94.12;99655.94;4898660;29;20096;-68
2022/08/17 09:41:54;;;;;;;10.65;7.10;;;;;;;23.90;93.86;99657.81;4884240;29;20481;-68
2022/08/17 09:44:54;;;;;;;10.57;6.88;;;;;;;24.07;93.93;99665.31;4881142;29;20036;-68
2022/08/17 09:47:29;;;;;;;9.07;6.40;;;;;;;24.13;93.31;99667.44;4897984;29;20116;-68
2022/08/17 09:50:20;;;;;;;10.95;6.50;;;;;;;23.85;92.31;99690.84;4898481;29;20051;-68
2022/08/17 09:52:48;;;;;;;9.98;6.70;;;;;;;23.75;93.43;99691.84;4897984;29;20047;-68
2022/08/17 09:55:13;;;;;;;10.63;6.95;;;;;;;23.79;94.57;99704.97;4898262;29;20032;-68
2022/08/17 09:58:08;;;;;;;10.90;6.60;;;;;;;23.82;95.10;99709.28;4897725;29;20268;-68
2022/08/17 10:00:39;;;;;;;10.90;6.10;;;;;;;23.80;95.16;99703.13;4898043;29;20049;-68
2022/08/17 10:03:27;;;;;;;10.40;6.60;;;;;;;23.75;95.33;99705.41;4897710;29;20488;-68
2022/08/17 10:06:20;;;;;;;13.65;5.90;;;;;;;23.85;94.48;99703.56;4896633;29;20065;-68
2022/08/17 10:09:20;;;;;;;7.00;5.32;;;;;;;23.75;91.92;99694.53;4897024;29;20036;-68
2022/08/17 10:12:16;;;;;;;8.02;4.80;;;;;;;23.61;91.28;99703.13;4875001;29;20457;-68
2022/08/17 10:15:06;;;;;;;10.68;5.00;;;;;;;23.60;91.25;99709.53;4897213;29;20032;-68
2022/08/17 10:17:49;;;;;;;7.57;5.00;;;;;;;23.64;92.30;99705.53;4899614;29;20614;-69
2022/08/17 10:20:40;;;;;;;9.75;5.85;;;;;;;23.69;92.26;99709.53;4897624;29;20029;-69
2022/08/17 10:26:13;;;;;;;7.55;5.20;;;;;;;23.67;92.60;99678.09;4897213;29;20055;-69
2022/08/17 10:29:05;;;;;;;8.65;4.88;;;;;;;23.48;92.16;99699.75;4897689;29;20076;-68
2022/08/17 10:31:59;;;;;;;7.03;5.00;;;;;;;23.57;93.97;99698.94;4897471;29;20035;-68
2022/08/17 10:34:55;;;;;;;7.57;5.05;;;;;;;23.61;93.83;99695.81;4899485;29;20180;-68
2022/08/17 10:37:41;;;;;;;8.68;5.25;;;;;;;23.77;94.06;99700.69;4882894;29;20028;-68
2022/08/17 10:40:09;;;;;;;8.82;5.25;;;;;;;23.96;93.37;99695.28;4897448;29;20024;-68
2022/08/17 10:42:56;;;;;;;8.68;5.18;;;;;;;24.03;91.48;99691.03;4897223;29;20043;-68
2022/08/17 10:45:36;;;;;;;7.10;4.65;;;;;;;23.93;91.71;99693.72;4897331;29;20036;-68
2022/08/17 10:48:04;;;;;;;9.43;5.72;;;;;;;23.75;90.82;99680.97;4892522;29;20111;-69
2022/08/17 10:50:54;;;;;;;7.68;4.65;;;;;;;23.77;90.67;99670.81;4897174;29;20047;-69
2022/08/17 10:53:32;;;;;;;8.05;5.38;;;;;;;23.89;90.60;99672.38;4897007;29;20112;-69
2022/08/17 10:56:13;;;;;;;7.63;5.22;;;;;;;24.05;91.70;99656.44;4897154;29;20046;-68
2022/08/17 10:58:44;;;;;;;9.35;5.07;;;;;;;24.21;90.03;99662.13;4896967;29;20036;-68
2022/08/17 11:01:11;;;;;;;8.20;5.43;;;;;;;24.40;89.82;99651.22;4896864;29;20052;-68
2022/08/17 11:03:51;;;;;;;7.35;4.68;;;;;;;24.59;88.14;99651.19;4896778;29;20143;-68
2022/08/17 11:06:39;;;;;;;6.78;4.53;;;;;;;24.82;87.23;99652.59;4897115;29;20033;-68
2022/08/17 11:09:33;;;;;;;7.22;4.65;;;;;;;24.78;85.45;99643.00;4896838;29;20028;-68
2022/08/17 11:12:05;;;;;;;9.20;4.35;;;;;;;24.65;84.57;99637.00;4899449;29;20039;-68
2022/08/17 11:14:30;;;;;;;8.20;4.70;;;;;;;24.57;85.16;99626.00;4897081;29;20547;-68
2022/08/17 11:17:19;;;;;;;7.88;4.15;;;;;;;24.46;85.90;99602.53;4896684;29;20024;-68
2022/08/17 11:20:15;;;;;;;11.40;4.95;;;;;;;24.35;85.72;99570.09;4896607;29;20527;-68
2022/08/17 11:22:56;;;;;;;7.80;4.45;;;;;;;24.52;88.78;99558.47;4896669;29;20084;-68
2022/08/17 11:25:38;;;;;;;7.45;4.50;;;;;;;24.57;89.94;99563.44;4896394;29;20489;-68
2022/08/17 11:28:14;;;;;;;6.63;4.35;;;;;;;24.50;89.15;99538.72;4896265;29;20043;-69
2022/08/17 11:30:47;;;;;;;7.50;4.35;;;;;;;24.55;88.87;99543.69;4896428;29;20029;-69
2022/08/17 11:33:27;;;;;;;6.85;4.45;;;;;;;24.63;89.55;99532.91;4896637;29;20030;-69
2022/08/17 11:36:08;;;;;;;8.80;4.55;;;;;;;24.72;89.46;99545.66;4879574;29;20036;-69
2022/08/17 11:39:06;;;;;;;6.78;4.45;;;;;;;24.80;86.37;99564.81;4896266;29;20477;-69
2022/08/17 11:41:34;;;;;;;6.72;4.45;;;;;;;24.93;84.11;99583.50;4888609;29;20134;-69
2022/08/17 11:44:09;;;;;;;9.50;4.97;;;;;;;25.27;83.74;99585.44;4896194;29;20036;-69
2022/08/17 11:53:02;;;;;;;8.90;4.78;;;;;;;27.20;78.08;99593.31;4896405;29;20132;-69
2022/08/17 11:55:30;;;;;;;7.10;4.50;;;;;;;27.52;78.42;99589.84;4896100;29;20032;-69
2022/08/17 11:58:00;;;;;;;7.35;4.72;;;;;;;28.09;79.36;99583.44;4895867;29;20115;-69
2022/08/17 12:00:44;;;;;;;12.30;4.30;;;;;;;29.01;74.90;99591.19;4895564;29;20085;-69
2022/08/17 12:03:30;;;;;;;6.53;4.22;;;;;;;29.43;69.53;99609.00;4895886;29;20092;-68
2022/08/17 12:06:05;;;;;;;6.15;4.07;;;;;;;29.62;66.39;99600.28;4879040;29;20024;-68
2022/08/17 12:08:33;;;;;;;8.48;4.38;;;;;;;29.65;66.61;99601.84;4895860;29;20035;-68
2022/08/17 12:11:15;;;;;;;7.65;4.70;;;;;;;30.04;67.76;99594.38;4895967;29;20036;-68
2022/08/17 12:13:48;;;;;;;7.35;4.35;;;;;;;30.29;63.24;99579.44;4898029;29;20024;-68
2022/08/17 12:16:16;;;;;;;8.50;4.47;;;;;;;30.33;64.95;99586.25;4896020;29;20071;-68
2022/08/17 12:18:52;;;;;;;6.72;4.38;;;;;;;30.70;62.87;99583.50;4891395;29;20065;-68
2022/08/17 12:21:46;;;;;;;8.77;4.18;;;;;;;31.05;59.09;99578.31;4877305;29;20493;-68
2022/08/17 12:24:17;;;;;;;;;;;;;;;31.40;57.34;99583.03;4877355;29;20029;-68
2022/08/17 12:26:55;;;;;;;8.25;4.07;;;;;;;31.65;57.77;99581.59;4883343;29;20299;-66